Meteorología


Vista de vientos por altitud

Escuchar ATIS SAEZ

Salida y Puesta del sol

Servicio Meteorológico Nacional
Windy
NOAA Aviation Wheather Center
Ogimet Gramet
WindGuru
Weather Underground

Decodificadores de información

METAR EZEIZA:

SAEZ 130400Z 14005KT CAVOK 14/04 Q1016 NOSIG